Ogden Hinckley Airport
KOGD : now visible

Airfield :











YOU CAN JOIN US ON...

 
LOGIN :

Register | Disclaimer

   EN    FR    IT 

 









Legend :    VFR   Marginal VFR   IFR   Intensive IFR   Very Intensive IFR
Visi :
Ceiling :
>= 8 km
>= 3000ft
5 to 8 km
1000 to 3000 ft
1500m to 5 km
500 to 1000 ft
800 to 1500m
200 to 500 ft
< 800m
< 200 ft
Symbols :   Thunderstorms  Fog  Heavy snow  Heavy precipitations  Wind > 20 kt







- Airport Elevation : 4473 ft


KOGD - Ogden Hinckley

CURRENT METAR :
  • 171253Z 17010KT 10SM CLR 15/06 A2999 RMK AO2 SLP104 T01500061

EXPIRED METARs :
  • 171153Z AUTO 17009KT 10SM CLR 14/06 A2997 RMK AO2 SLP097 T01440061 10189 20144 53002
  • 171053Z AUTO 16008KT 10SM CLR 15/06 A2997 RMK AO2 SLP095 T01500061

TAF KOGD
Valid from the 17 at 12:00 until the 18 at 12:00 UTC


171120Z 1712/1812 17005KT P6SM FEW100 BKN200
FM171700 26006KT P6SM FEW080 BKN200
FM172300 29009KT P6SM VCTS SCT080CB BKN120
FM180400 26008KT P6SM SCT120 BKN200
KZLC FIR / North America



MET'MAP, your aeronautical weather chart ! - Copyright ORBIFLY December 2007 - Disclaimer

ORBIFLY MET'MAP TEAM :

Programming & Development : Alexandra Zaïnal
Concept & Development : Baudouin d'Aumeries
Co-Development & Prog : Marc-Olivier Méhu
Technical & hardware support : Manuel Goepfert

Contact : metmap@orbifly.com




SOURCES & CREDITS :

   NOAA       Earth
Advisory